createdAt,value
2022-07-31T00:03:16.778Z,24.60
2022-07-31T00:08:21.306Z,24.50
2022-07-31T00:13:57.141Z,24.50
2022-07-31T00:18:47.504Z,24.40
2022-07-31T00:23:51.958Z,24.40
2022-07-31T00:28:55.099Z,24.40
2022-07-31T00:33:58.304Z,24.40
2022-07-31T00:39:03.597Z,24.40
2022-07-31T00:44:12.172Z,24.40
2022-07-31T00:49:15.812Z,24.30
2022-07-31T00:54:22.709Z,24.30
2022-07-31T00:59:26.367Z,24.20
2022-07-31T01:04:31.277Z,24.20
2022-07-31T01:09:35.943Z,24.20
2022-07-31T01:14:42.738Z,24.20
2022-07-31T01:19:47.743Z,24.20
2022-07-31T01:25:04.947Z,24.10
2022-07-31T01:30:10.061Z,24.20
2022-07-31T01:35:17.335Z,24.10
2022-07-31T01:40:26.957Z,24.00
2022-07-31T01:45:33.172Z,24.00
2022-07-31T01:50:43.110Z,24.00
2022-07-31T01:56:02.734Z,24.00
2022-07-31T02:01:11.562Z,24.00
2022-07-31T02:06:17.805Z,24.00
2022-07-31T02:11:21.792Z,24.00
2022-07-31T02:16:27.675Z,23.90
2022-07-31T02:21:30.852Z,23.90
2022-07-31T02:26:35.076Z,23.90
2022-07-31T02:31:40.673Z,23.90
2022-07-31T02:36:44.611Z,23.90
2022-07-31T02:41:49.400Z,23.90
2022-07-31T02:46:53.938Z,23.90
2022-07-31T02:51:57.620Z,23.90
2022-07-31T02:57:04.144Z,23.90
2022-07-31T03:02:08.747Z,23.90
2022-07-31T03:07:12.048Z,23.90
2022-07-31T03:12:15.114Z,23.90
2022-07-31T03:17:20.531Z,23.90
2022-07-31T03:22:24.173Z,23.90
2022-07-31T03:27:27.507Z,23.90
2022-07-31T03:32:31.929Z,23.80
2022-07-31T03:37:34.970Z,23.90
2022-07-31T03:42:38.364Z,23.90
2022-07-31T03:47:43.247Z,23.80
2022-07-31T03:52:49.328Z,23.90
2022-07-31T03:57:53.435Z,23.80
2022-07-31T04:02:59.951Z,23.80
2022-07-31T04:08:03.349Z,23.90
2022-07-31T04:13:07.274Z,23.80
2022-07-31T04:18:11.732Z,23.80
2022-07-31T04:23:14.808Z,23.90
2022-07-31T04:28:18.024Z,23.80
2022-07-31T04:33:22.699Z,23.80
2022-07-31T04:38:26.303Z,23.70
2022-07-31T04:43:29.500Z,23.30
2022-07-31T04:48:34.078Z,23.20
2022-07-31T04:53:38.484Z,23.20
2022-07-31T04:58:41.753Z,23.20
2022-07-31T05:03:46.307Z,23.00
2022-07-31T05:08:49.406Z,23.00
2022-07-31T05:13:53.395Z,23.00
2022-07-31T05:18:58.415Z,23.00
2022-07-31T05:24:02.431Z,23.00
2022-07-31T05:29:06.005Z,23.30
2022-07-31T05:34:10.638Z,23.60
2022-07-31T05:39:13.824Z,23.70
2022-07-31T05:44:16.876Z,24.00
2022-07-31T05:49:22.250Z,24.20
2022-07-31T05:54:25.593Z,24.50
2022-07-31T05:59:28.802Z,24.60
2022-07-31T06:04:33.345Z,24.80
2022-07-31T06:09:36.835Z,25.10
2022-07-31T06:14:40.210Z,25.20
2022-07-31T06:19:44.892Z,25.20
2022-07-31T06:24:48.100Z,25.30
2022-07-31T06:29:51.380Z,25.30
2022-07-31T06:34:55.953Z,25.10
2022-07-31T06:39:59.035Z,25.10
2022-07-31T06:45:03.745Z,25.10
2022-07-31T06:50:09.636Z,25.20
2022-07-31T06:55:12.879Z,25.20
2022-07-31T07:00:20.544Z,25.30
2022-07-31T07:05:25.425Z,25.50
2022-07-31T07:10:28.585Z,25.50
2022-07-31T07:15:31.788Z,25.50
2022-07-31T07:20:36.368Z,25.60
2022-07-31T07:25:39.561Z,25.60
2022-07-31T07:30:43.015Z,25.60
2022-07-31T07:35:47.594Z,25.70
2022-07-31T07:40:51.182Z,25.70
2022-07-31T07:45:54.657Z,25.80
2022-07-31T07:50:59.111Z,25.80
2022-07-31T07:56:02.324Z,25.80
2022-07-31T08:01:06.166Z,25.90
2022-07-31T08:06:10.904Z,25.90
2022-07-31T08:11:17.127Z,25.90
2022-07-31T08:16:21.663Z,26.00
2022-07-31T08:21:26.808Z,26.00
2022-07-31T08:26:50.664Z,26.00
2022-07-31T08:31:54.103Z,26.00
2022-07-31T08:36:58.574Z,26.10
2022-07-31T08:42:05.904Z,26.10
2022-07-31T08:47:10.941Z,26.10
2022-07-31T08:52:19.168Z,26.20
2022-07-31T08:57:22.542Z,26.20
2022-07-31T09:02:25.817Z,26.30
2022-07-31T09:07:30.456Z,26.40
2022-07-31T09:12:35.309Z,26.40
2022-07-31T09:17:38.588Z,26.50
2022-07-31T09:22:43.292Z,26.50
2022-07-31T09:27:47.575Z,26.50
2022-07-31T09:32:51.326Z,26.60
2022-07-31T09:37:55.912Z,26.60
2022-07-31T09:42:59.127Z,26.60
2022-07-31T09:48:08.321Z,26.60
2022-07-31T09:53:17.289Z,26.60
2022-07-31T09:58:21.173Z,26.70
2022-07-31T10:03:27.361Z,26.70
2022-07-31T10:08:36.757Z,26.70
2022-07-31T10:13:45.770Z,26.70
2022-07-31T10:18:52.558Z,26.70
2022-07-31T10:23:59.654Z,26.80
2022-07-31T10:29:03.868Z,26.80
2022-07-31T10:34:07.778Z,26.80
2022-07-31T10:39:24.829Z,26.80
2022-07-31T10:44:38.736Z,26.80
2022-07-31T10:49:43.475Z,26.80
2022-07-31T10:54:49.805Z,26.80
2022-07-31T10:59:53.877Z,26.80
2022-07-31T11:05:08.621Z,26.80
2022-07-31T11:10:18.928Z,26.80
2022-07-31T11:15:24.267Z,26.90
2022-07-31T11:20:29.689Z,26.80
2022-07-31T11:25:36.545Z,26.80
2022-07-31T11:30:50.159Z,26.90
2022-07-31T11:35:53.457Z,26.80
2022-07-31T11:40:58.251Z,26.80
2022-07-31T11:46:01.813Z,26.90
2022-07-31T11:51:05.383Z,26.90
2022-07-31T11:56:10.194Z,26.90
2022-07-31T12:01:13.701Z,26.90
2022-07-31T12:06:20.611Z,27.00
2022-07-31T12:11:25.651Z,27.00
2022-07-31T12:16:29.271Z,27.00
2022-07-31T12:21:34.299Z,27.00
2022-07-31T12:26:38.767Z,27.00
2022-07-31T12:31:46.966Z,27.00
2022-07-31T12:36:59.271Z,27.10
2022-07-31T12:42:04.082Z,27.10
2022-07-31T12:47:07.621Z,27.10
2022-07-31T12:52:10.873Z,27.10
2022-07-31T12:57:15.446Z,27.10
2022-07-31T13:02:18.641Z,27.10
2022-07-31T13:07:21.857Z,27.10
2022-07-31T13:12:26.408Z,27.10
2022-07-31T13:17:29.730Z,27.10
2022-07-31T13:22:33.256Z,27.20
2022-07-31T13:27:37.764Z,27.20
2022-07-31T13:32:40.945Z,27.20
2022-07-31T13:37:44.295Z,27.20
2022-07-31T13:42:48.906Z,27.20
2022-07-31T13:47:53.502Z,27.30
2022-07-31T13:52:58.796Z,27.20
2022-07-31T13:58:03.669Z,27.20
2022-07-31T14:03:06.705Z,27.20
2022-07-31T14:08:33.333Z,27.10
2022-07-31T14:13:34.831Z,27.10
2022-07-31T14:18:45.633Z,27.20
2022-07-31T14:23:49.342Z,27.20
2022-07-31T14:28:54.001Z,27.30
2022-07-31T14:33:57.213Z,27.40
2022-07-31T14:39:01.654Z,27.30
2022-07-31T14:44:06.401Z,27.30
2022-07-31T14:49:09.624Z,27.40
2022-07-31T14:54:12.903Z,27.40
2022-07-31T14:59:17.511Z,27.30
2022-07-31T15:04:21.077Z,27.40
2022-07-31T15:09:24.564Z,27.40
2022-07-31T15:14:29.731Z,27.40
2022-07-31T15:19:33.512Z,27.40
2022-07-31T15:24:41.153Z,27.40
2022-07-31T15:30:05.993Z,27.40
2022-07-31T15:35:13.363Z,27.40
2022-07-31T15:40:18.032Z,27.40
2022-07-31T15:45:22.772Z,27.50
2022-07-31T15:50:26.204Z,27.50
2022-07-31T15:55:29.914Z,27.50
2022-07-31T16:00:35.288Z,27.50
2022-07-31T16:05:38.776Z,27.60
2022-07-31T16:10:42.353Z,27.60
2022-07-31T16:15:47.173Z,27.60
2022-07-31T16:20:50.398Z,27.70
2022-07-31T16:25:53.729Z,27.70
2022-07-31T16:30:58.646Z,27.70
2022-07-31T16:36:01.839Z,27.60
2022-07-31T16:41:05.274Z,27.70
2022-07-31T16:46:10.015Z,27.70
2022-07-31T16:51:13.352Z,27.60
2022-07-31T16:56:16.724Z,27.70
2022-07-31T17:02:00.141Z,27.60
2022-07-31T17:06:45.090Z,27.60
2022-07-31T17:11:49.575Z,27.60
2022-07-31T17:16:55.525Z,27.50
2022-07-31T17:21:58.824Z,27.40
2022-07-31T17:27:04.536Z,27.40
2022-07-31T17:32:11.170Z,27.40
2022-07-31T17:37:17.550Z,27.50
2022-07-31T17:42:23.601Z,27.50
2022-07-31T17:47:28.514Z,27.50
2022-07-31T17:52:32.077Z,27.50
2022-07-31T17:57:35.310Z,27.50
2022-07-31T18:02:40.464Z,27.50
2022-07-31T18:07:44.111Z,27.50
2022-07-31T18:12:57.270Z,27.40
2022-07-31T18:18:02.762Z,27.40
2022-07-31T18:23:06.069Z,27.40
2022-07-31T18:28:13.395Z,27.40
2022-07-31T18:33:18.171Z,27.30
2022-07-31T18:38:21.463Z,27.40
2022-07-31T18:43:24.711Z,27.30
2022-07-31T18:48:29.533Z,27.30
2022-07-31T18:53:33.055Z,27.30
2022-07-31T18:58:36.299Z,27.20
2022-07-31T19:03:40.947Z,27.10
2022-07-31T19:08:44.336Z,27.10
2022-07-31T19:13:48.293Z,27.00
2022-07-31T19:18:52.942Z,27.10
2022-07-31T19:23:56.192Z,27.10
2022-07-31T19:28:59.480Z,27.00
2022-07-31T19:34:04.082Z,27.00
2022-07-31T19:39:07.195Z,27.00
2022-07-31T19:44:13.291Z,27.00
2022-07-31T19:49:18.122Z,27.00
2022-07-31T19:54:21.400Z,26.90
2022-07-31T19:59:24.704Z,26.90
2022-07-31T20:04:29.496Z,26.80
2022-07-31T20:09:32.749Z,26.80
2022-07-31T20:14:35.923Z,26.80
2022-07-31T20:20:03.036Z,26.80
2022-07-31T20:25:12.096Z,26.80
2022-07-31T20:30:25.156Z,26.80
2022-07-31T20:35:48.027Z,26.80
2022-07-31T20:40:55.813Z,26.70
2022-07-31T20:46:00.603Z,26.70
2022-07-31T20:51:06.975Z,26.70
2022-07-31T20:56:10.560Z,26.70
2022-07-31T21:01:15.524Z,26.70
2022-07-31T21:06:21.081Z,26.70
2022-07-31T21:11:31.281Z,26.70
2022-07-31T21:16:34.989Z,26.70
2022-07-31T21:21:39.589Z,26.70
2022-07-31T21:26:44.217Z,26.70
2022-07-31T21:31:48.969Z,26.70
2022-07-31T21:36:55.216Z,26.60
2022-07-31T21:41:58.916Z,26.60
2022-07-31T21:47:03.153Z,26.60
2022-07-31T21:52:09.453Z,26.60
2022-07-31T21:57:12.551Z,26.60
2022-07-31T22:02:15.990Z,26.60
2022-07-31T22:07:35.790Z,26.50
2022-07-31T22:12:38.999Z,26.50
2022-07-31T22:17:42.569Z,26.50
2022-07-31T22:22:48.126Z,26.50
2022-07-31T22:27:55.524Z,26.50
2022-07-31T22:33:00.558Z,26.40
2022-07-31T22:38:05.218Z,26.40
2022-07-31T22:44:10.268Z,26.30
2022-07-31T22:48:32.899Z,26.30
2022-07-31T22:53:37.366Z,26.20
2022-07-31T22:58:40.660Z,26.20
2022-07-31T23:03:43.869Z,26.10
2022-07-31T23:08:50.845Z,26.10
2022-07-31T23:13:57.655Z,26.10
2022-07-31T23:19:00.785Z,26.10
2022-07-31T23:24:05.406Z,26.10
2022-07-31T23:29:08.522Z,26.10
2022-07-31T23:34:11.787Z,26.10
2022-07-31T23:39:16.274Z,26.00
2022-07-31T23:44:24.885Z,26.00
2022-07-31T23:49:28.420Z,26.00
2022-07-31T23:54:32.926Z,26.00
2022-07-31T23:59:35.980Z,26.00
